sensor_id;sensor_type;location;lat;lon;timestamp;pressure;altitude;pressure_sealevel;temperature;humidity
41945;BME280;63122;52.424;13.458;2023-03-31T00:17:07;99924.22;;;9.39;100.00
41945;BME280;63122;52.424;13.458;2023-03-31T00:45:06;99893.13;;;9.59;100.00
41945;BME280;63122;52.424;13.458;2023-03-31T00:57:48;99889.19;;;9.46;100.00
41945;BME280;63122;52.424;13.458;2023-03-31T01:00:09;99880.78;;;9.43;100.00
41945;BME280;63122;52.424;13.458;2023-03-31T01:02:36;99890.16;;;9.45;100.00
41945;BME280;63122;52.424;13.458;2023-03-31T01:05:58;99870.91;;;9.45;100.00
41945;BME280;63122;52.424;13.458;2023-03-31T01:09:15;99868.44;;;9.43;100.00
41945;BME280;63122;52.424;13.458;2023-03-31T01:14:38;99853.97;;;9.39;100.00
41945;BME280;63122;52.424;13.458;2023-03-31T01:20:36;99848.53;;;9.32;100.00
41945;BME280;63122;52.424;13.458;2023-03-31T01:24:06;99849.50;;;9.31;100.00
41945;BME280;63122;52.424;13.458;2023-03-31T01:30:09;99842.75;;;9.29;100.00
41945;BME280;63122;52.424;13.458;2023-03-31T01:38:04;99842.59;;;9.30;100.00
41945;BME280;63122;52.424;13.458;2023-03-31T01:43:13;99832.88;;;9.31;100.00
41945;BME280;63122;52.424;13.458;2023-03-31T01:45:54;99839.78;;;9.32;100.00
41945;BME280;63122;52.424;13.458;2023-03-31T01:48:34;99827.13;;;9.35;100.00
41945;BME280;63122;52.424;13.458;2023-03-31T01:51:37;99822.88;;;9.34;100.00
41945;BME280;63122;52.424;13.458;2023-03-31T01:55:30;99832.41;;;9.35;100.00
41945;BME280;63122;52.424;13.458;2023-03-31T01:58:29;99817.44;;;9.36;100.00
41945;BME280;63122;52.424;13.458;2023-03-31T02:01:40;99820.22;;;9.34;100.00
41945;BME280;63122;52.424;13.458;2023-03-31T02:04:17;99825.00;;;9.39;100.00
41945;BME280;63122;52.424;13.458;2023-03-31T02:07:28;99808.56;;;9.37;100.00
41945;BME280;63122;52.424;13.458;2023-03-31T02:10:40;99806.22;;;9.34;100.00
41945;BME280;63122;52.424;13.458;2023-03-31T02:16:07;99803.31;;;9.37;100.00
41945;BME280;63122;52.424;13.458;2023-03-31T02:18:24;99785.34;;;9.41;100.00
41945;BME280;63122;52.424;13.458;2023-03-31T02:21:02;99794.06;;;9.41;100.00
41945;BME280;63122;52.424;13.458;2023-03-31T02:23:25;99784.34;;;9.42;100.00
41945;BME280;63122;52.424;13.458;2023-03-31T02:25:53;99788.63;;;9.43;100.00
41945;BME280;63122;52.424;13.458;2023-03-31T02:28:29;99787.00;;;9.42;100.00
41945;BME280;63122;52.424;13.458;2023-03-31T02:33:19;99773.34;;;9.38;100.00
41945;BME280;63122;52.424;13.458;2023-03-31T02:35:23;99778.78;;;9.36;100.00
41945;BME280;63122;52.424;13.458;2023-03-31T02:37:49;99778.28;;;9.33;100.00
41945;BME280;63122;52.424;13.458;2023-03-31T02:40:03;99770.72;;;9.30;100.00
41945;BME280;63122;52.424;13.458;2023-03-31T02:42:24;99769.41;;;9.26;100.00
41945;BME280;63122;52.424;13.458;2023-03-31T02:44:33;99769.72;;;9.22;100.00
41945;BME280;63122;52.424;13.458;2023-03-31T02:50:15;99768.25;;;9.20;100.00
41945;BME280;63122;52.424;13.458;2023-03-31T02:55:17;99754.94;;;9.21;100.00
41945;BME280;63122;52.424;13.458;2023-03-31T03:00:43;99749.50;;;9.23;100.00
41945;BME280;63122;52.424;13.458;2023-03-31T03:03:39;99748.03;;;9.20;100.00
41945;BME280;63122;52.424;13.458;2023-03-31T03:06:25;99749.66;;;9.21;100.00
41945;BME280;63122;52.424;13.458;2023-03-31T03:13:35;99745.72;;;9.17;100.00
41945;BME280;63122;52.424;13.458;2023-03-31T03:15:41;99742.44;;;9.15;100.00
41945;BME280;63122;52.424;13.458;2023-03-31T03:22:18;99746.88;;;9.15;100.00
41945;BME280;63122;52.424;13.458;2023-03-31T03:29:01;99740.63;;;9.16;100.00
41945;BME280;63122;52.424;13.458;2023-03-31T03:32:20;99738.63;;;9.18;100.00
41945;BME280;63122;52.424;13.458;2023-03-31T03:35:37;99734.22;;;9.18;100.00
41945;BME280;63122;52.424;13.458;2023-03-31T03:43:47;99710.53;;;9.18;100.00
41945;BME280;63122;52.424;13.458;2023-03-31T03:46:44;99706.06;;;9.19;100.00
41945;BME280;63122;52.424;13.458;2023-03-31T03:49:01;99709.34;;;9.21;100.00
41945;BME280;63122;52.424;13.458;2023-03-31T03:51:05;99709.34;;;9.21;100.00
41945;BME280;63122;52.424;13.458;2023-03-31T03:53:25;99710.34;;;9.20;100.00
41945;BME280;63122;52.424;13.458;2023-03-31T03:55:52;99702.63;;;9.18;100.00
41945;BME280;63122;52.424;13.458;2023-03-31T03:58:18;99693.91;;;9.18;100.00
41945;BME280;63122;52.424;13.458;2023-03-31T04:00:14;99699.50;;;9.15;100.00
41945;BME280;63122;52.424;13.458;2023-03-31T04:02:10;99699.34;;;9.16;100.00
41945;BME280;63122;52.424;13.458;2023-03-31T04:04:06;99695.88;;;9.16;100.00
41945;BME280;63122;52.424;13.458;2023-03-31T04:06:02;99696.72;;;9.16;100.00
41945;BME280;63122;52.424;13.458;2023-03-31T04:08:07;99695.06;;;9.15;100.00
41945;BME280;63122;52.424;13.458;2023-03-31T04:10:07;99694.09;;;9.16;100.00
41945;BME280;63122;52.424;13.458;2023-03-31T04:12:06;99700.00;;;9.18;100.00
41945;BME280;63122;52.424;13.458;2023-03-31T04:14:01;99691.44;;;9.16;100.00
41945;BME280;63122;52.424;13.458;2023-03-31T04:15:57;99694.88;;;9.17;100.00
41945;BME280;63122;52.424;13.458;2023-03-31T04:17:52;99694.25;;;9.15;100.00
41945;BME280;63122;52.424;13.458;2023-03-31T04:19:49;99693.44;;;9.14;100.00
41945;BME280;63122;52.424;13.458;2023-03-31T04:21:45;99685.69;;;9.13;100.00
41945;BME280;63122;52.424;13.458;2023-03-31T04:23:51;99691.13;;;9.11;100.00
41945;BME280;63122;52.424;13.458;2023-03-31T04:25:50;99685.88;;;9.11;100.00
41945;BME280;63122;52.424;13.458;2023-03-31T04:27:49;99685.03;;;9.11;100.00
41945;BME280;63122;52.424;13.458;2023-03-31T04:29:46;99684.38;;;9.08;100.00
41945;BME280;63122;52.424;13.458;2023-03-31T04:31:45;99683.88;;;9.05;100.00
41945;BME280;63122;52.424;13.458;2023-03-31T04:33:44;99673.34;;;9.05;100.00
41945;BME280;63122;52.424;13.458;2023-03-31T04:35:41;99673.34;;;9.05;100.00
41945;BME280;63122;52.424;13.458;2023-03-31T04:37:44;99673.53;;;9.03;100.00
41945;BME280;63122;52.424;13.458;2023-03-31T04:39:39;99671.06;;;9.02;100.00
41945;BME280;63122;52.424;13.458;2023-03-31T04:41:37;99673.88;;;9.00;100.00
41945;BME280;63122;52.424;13.458;2023-03-31T04:43:35;99660.88;;;8.99;100.00
41945;BME280;63122;52.424;13.458;2023-03-31T04:45:31;99663.03;;;8.95;100.00
41945;BME280;63122;52.424;13.458;2023-03-31T04:47:26;99658.56;;;8.96;100.00
41945;BME280;63122;52.424;13.458;2023-03-31T04:49:22;99653.50;;;8.94;100.00
41945;BME280;63122;52.424;13.458;2023-03-31T04:51:17;99644.63;;;8.95;100.00
41945;BME280;63122;52.424;13.458;2023-03-31T04:53:12;99642.97;;;8.94;100.00
41945;BME280;63122;52.424;13.458;2023-03-31T04:55:08;99639.19;;;8.97;100.00
41945;BME280;63122;52.424;13.458;2023-03-31T04:57:04;99650.88;;;8.94;100.00
41945;BME280;63122;52.424;13.458;2023-03-31T04:59:02;99649.38;;;8.91;100.00
41945;BME280;63122;52.424;13.458;2023-03-31T05:00:58;99638.03;;;8.91;100.00
41945;BME280;63122;52.424;13.458;2023-03-31T05:02:53;99643.47;;;8.89;100.00
41945;BME280;63122;52.424;13.458;2023-03-31T05:04:49;99640.19;;;8.87;100.00
41945;BME280;63122;52.424;13.458;2023-03-31T05:06:45;99637.56;;;8.87;100.00
41945;BME280;63122;52.424;13.458;2023-03-31T05:08:40;99635.41;;;8.83;100.00
41945;BME280;63122;52.424;13.458;2023-03-31T05:10:36;99630.97;;;8.83;100.00
41945;BME280;63122;52.424;13.458;2023-03-31T05:12:33;99629.00;;;8.85;100.00
41945;BME280;63122;52.424;13.458;2023-03-31T05:14:31;99614.69;;;8.88;100.00
41945;BME280;63122;52.424;13.458;2023-03-31T05:16:26;99620.13;;;8.86;100.00
41945;BME280;63122;52.424;13.458;2023-03-31T05:18:22;99609.94;;;8.83;100.00
41945;BME280;63122;52.424;13.458;2023-03-31T05:20:18;99616.19;;;8.82;100.00
41945;BME280;63122;52.424;13.458;2023-03-31T05:22:13;99606.47;;;8.83;100.00
41945;BME280;63122;52.424;13.458;2023-03-31T05:24:12;99610.94;;;8.82;100.00
41945;BME280;63122;52.424;13.458;2023-03-31T05:26:08;99619.31;;;8.77;100.00
41945;BME280;63122;52.424;13.458;2023-03-31T05:28:03;99607.16;;;8.76;100.00
41945;BME280;63122;52.424;13.458;2023-03-31T05:30:02;99610.75;;;8.75;100.00
41945;BME280;63122;52.424;13.458;2023-03-31T05:31:59;99606.66;;;8.73;100.00
41945;BME280;63122;52.424;13.458;2023-03-31T05:33:56;99599.41;;;8.75;100.00
41945;BME280;63122;52.424;13.458;2023-03-31T05:35:57;99603.88;;;8.74;100.00
41945;BME280;63122;52.424;13.458;2023-03-31T05:38:07;99604.34;;;8.70;100.00
41945;BME280;63122;52.424;13.458;2023-03-31T05:40:08;99596.47;;;8.70;100.00
41945;BME280;63122;52.424;13.458;2023-03-31T05:42:03;99592.19;;;8.69;100.00
41945;BME280;63122;52.424;13.458;2023-03-31T05:44:04;99599.56;;;8.65;100.00
41945;BME280;63122;52.424;13.458;2023-03-31T05:46:06;99599.44;;;8.67;100.00
41945;BME280;63122;52.424;13.458;2023-03-31T05:48:09;99586.28;;;8.67;100.00
41945;BME280;63122;52.424;13.458;2023-03-31T05:57:49;99576.09;;;8.72;100.00
41945;BME280;63122;52.424;13.458;2023-03-31T05:59:46;99568.69;;;8.75;100.00
41945;BME280;63122;52.424;13.458;2023-03-31T06:01:46;99573.28;;;8.82;100.00
41945;BME280;63122;52.424;13.458;2023-03-31T06:04:51;99581.16;;;8.82;100.00
41945;BME280;63122;52.424;13.458;2023-03-31T06:08:51;99568.19;;;8.80;100.00
41945;BME280;63122;52.424;13.458;2023-03-31T06:15:10;99550.75;;;8.79;100.00
41945;BME280;63122;52.424;13.458;2023-03-31T06:17:35;99554.22;;;8.79;100.00
41945;BME280;63122;52.424;13.458;2023-03-31T06:50:49;99522.75;;;9.11;100.00
41945;BME280;63122;52.424;13.458;2023-03-31T06:53:20;99520.38;;;9.25;100.00
41945;BME280;63122;52.424;13.458;2023-03-31T06:59:32;99516.66;;;9.50;100.00
41945;BME280;63122;52.424;13.458;2023-03-31T07:04:53;99513.31;;;9.57;100.00
41945;BME280;63122;52.424;13.458;2023-03-31T07:06:51;99505.53;;;9.63;100.00
41945;BME280;63122;52.424;13.458;2023-03-31T07:08:47;99503.03;;;9.70;100.00
41945;BME280;63122;52.424;13.458;2023-03-31T07:25:00;99487.31;;;9.85;100.00
41945;BME280;63122;52.424;13.458;2023-03-31T07:45:13;99466.03;;;10.48;100.00
41945;BME280;63122;52.424;13.458;2023-03-31T07:47:17;99464.50;;;10.54;100.00
41945;BME280;63122;52.424;13.458;2023-03-31T07:49:30;99456.03;;;10.59;100.00
41945;BME280;63122;52.424;13.458;2023-03-31T07:54:25;99453.50;;;10.80;100.00
41945;BME280;63122;52.424;13.458;2023-03-31T08:10:34;99441.03;;;10.89;100.00
41945;BME280;63122;52.424;13.458;2023-03-31T08:13:24;99444.75;;;10.95;100.00
41945;BME280;63122;52.424;13.458;2023-03-31T08:23:08;99422.25;;;11.14;100.00
41945;BME280;63122;52.424;13.458;2023-03-31T08:43:49;99385.75;;;11.40;100.00
41945;BME280;63122;52.424;13.458;2023-03-31T08:58:12;99384.81;;;11.47;100.00
41945;BME280;63122;52.424;13.458;2023-03-31T09:05:21;99375.06;;;11.48;100.00
41945;BME280;63122;52.424;13.458;2023-03-31T09:09:41;99362.59;;;11.63;100.00
41945;BME280;63122;52.424;13.458;2023-03-31T09:15:19;99360.47;;;11.74;100.00
41945;BME280;63122;52.424;13.458;2023-03-31T09:21:27;99341.34;;;12.00;100.00
41945;BME280;63122;52.424;13.458;2023-03-31T09:27:17;99341.81;;;12.10;100.00
41945;BME280;63122;52.424;13.458;2023-03-31T09:29:16;99341.81;;;12.10;100.00
41945;BME280;63122;52.424;13.458;2023-03-31T09:31:22;99335.53;;;12.12;100.00
41945;BME280;63122;52.424;13.458;2023-03-31T09:33:28;99335.38;;;12.20;100.00
41945;BME280;63122;52.424;13.458;2023-03-31T09:35:32;99342.31;;;12.21;100.00
41945;BME280;63122;52.424;13.458;2023-03-31T09:37:30;99327.06;;;12.23;100.00
41945;BME280;63122;52.424;13.458;2023-03-31T09:39:28;99339.06;;;12.19;100.00
41945;BME280;63122;52.424;13.458;2023-03-31T09:41:24;99323.19;;;12.19;100.00
41945;BME280;63122;52.424;13.458;2023-03-31T09:43:22;99334.25;;;12.36;100.00
41945;BME280;63122;52.424;13.458;2023-03-31T09:45:19;99328.00;;;12.44;100.00
41945;BME280;63122;52.424;13.458;2023-03-31T09:47:22;99311.09;;;12.45;100.00
41945;BME280;63122;52.424;13.458;2023-03-31T09:49:23;99313.31;;;12.41;100.00
41945;BME280;63122;52.424;13.458;2023-03-31T09:51:25;99303.13;;;12.38;100.00
41945;BME280;63122;52.424;13.458;2023-03-31T09:53:30;99297.63;;;12.39;100.00
41945;BME280;63122;52.424;13.458;2023-03-31T09:55:35;99294.81;;;12.41;100.00
41945;BME280;63122;52.424;13.458;2023-03-31T09:57:39;99300.50;;;12.38;100.00
41945;BME280;63122;52.424;13.458;2023-03-31T09:59:37;99283.19;;;12.35;100.00
41945;BME280;63122;52.424;13.458;2023-03-31T10:01:36;99299.03;;;12.35;100.00
41945;BME280;63122;52.424;13.458;2023-03-31T10:07:10;99282.53;;;12.20;100.00
41945;BME280;63122;52.424;13.458;2023-03-31T10:11:06;99268.34;;;12.34;100.00
41945;BME280;63122;52.424;13.458;2023-03-31T10:12:15;99281.81;;;12.46;100.00
41945;BME280;63122;52.424;13.458;2023-03-31T10:14:16;99284.03;;;12.43;100.00
41945;BME280;63122;52.424;13.458;2023-03-31T10:16:14;99276.66;;;12.31;100.00
41945;BME280;63122;52.424;13.458;2023-03-31T10:18:17;99262.25;;;12.34;100.00
41945;BME280;63122;52.424;13.458;2023-03-31T10:20:29;99264.13;;;12.47;100.00
41945;BME280;63122;52.424;13.458;2023-03-31T10:22:42;99260.47;;;12.55;100.00
41945;BME280;63122;52.424;13.458;2023-03-31T10:24:40;99255.66;;;12.72;100.00
41945;BME280;63122;52.424;13.458;2023-03-31T10:26:39;99259.72;;;12.74;100.00
41945;BME280;63122;52.424;13.458;2023-03-31T10:28:37;99255.44;;;12.73;100.00
41945;BME280;63122;52.424;13.458;2023-03-31T10:30:35;99241.59;;;12.71;100.00
41945;BME280;63122;52.424;13.458;2023-03-31T10:32:33;99238.50;;;12.67;100.00
41945;BME280;63122;52.424;13.458;2023-03-31T10:34:33;99232.44;;;12.74;100.00
41945;BME280;63122;52.424;13.458;2023-03-31T10:36:30;99233.25;;;12.81;100.00
41945;BME280;63122;52.424;13.458;2023-03-31T10:38:31;99228.59;;;12.83;100.00
41945;BME280;63122;52.424;13.458;2023-03-31T10:40:31;99229.78;;;12.67;100.00
41945;BME280;63122;52.424;13.458;2023-03-31T10:42:27;99235.06;;;12.60;100.00
41945;BME280;63122;52.424;13.458;2023-03-31T10:44:31;99226.09;;;12.61;100.00
41945;BME280;63122;52.424;13.458;2023-03-31T10:46:41;99222.84;;;12.59;100.00
41945;BME280;63122;52.424;13.458;2023-03-31T10:48:41;99223.00;;;12.44;100.00
41945;BME280;63122;52.424;13.458;2023-03-31T10:50:42;99233.59;;;12.44;100.00
41945;BME280;63122;52.424;13.458;2023-03-31T10:52:43;99247.78;;;12.36;100.00
41945;BME280;63122;52.424;13.458;2023-03-31T10:54:50;99266.66;;;12.27;100.00
41945;BME280;63122;52.424;13.458;2023-03-31T10:56:54;99246.88;;;12.09;100.00
41945;BME280;63122;52.424;13.458;2023-03-31T11:01:29;99258.06;;;11.19;100.00
41945;BME280;63122;52.424;13.458;2023-03-31T11:03:37;99236.06;;;10.90;100.00
41945;BME280;63122;52.424;13.458;2023-03-31T11:05:45;99229.50;;;10.86;100.00
41945;BME280;63122;52.424;13.458;2023-03-31T11:07:53;99242.34;;;10.89;100.00
41945;BME280;63122;52.424;13.458;2023-03-31T11:10:06;99241.34;;;10.90;100.00
41945;BME280;63122;52.424;13.458;2023-03-31T11:12:10;99238.56;;;10.98;100.00
41945;BME280;63122;52.424;13.458;2023-03-31T11:14:14;99236.19;;;11.03;100.00
41945;BME280;63122;52.424;13.458;2023-03-31T11:16:17;99238.25;;;11.08;100.00
41945;BME280;63122;52.424;13.458;2023-03-31T11:18:30;99231.59;;;11.12;100.00
41945;BME280;63122;52.424;13.458;2023-03-31T11:20:33;99228.19;;;11.18;100.00
41945;BME280;63122;52.424;13.458;2023-03-31T11:22:36;99228.00;;;11.20;100.00
41945;BME280;63122;52.424;13.458;2023-03-31T11:24:50;99220.94;;;11.27;100.00
41945;BME280;63122;52.424;13.458;2023-03-31T11:26:55;99217.53;;;11.33;100.00
41945;BME280;63122;52.424;13.458;2023-03-31T11:29:05;99206.59;;;11.36;100.00
41945;BME280;63122;52.424;13.458;2023-03-31T11:31:20;99199.97;;;11.47;100.00
41945;BME280;63122;52.424;13.458;2023-03-31T11:36:01;99184.16;;;11.54;100.00
41945;BME280;63122;52.424;13.458;2023-03-31T11:38:16;99172.78;;;11.53;100.00
41945;BME280;63122;52.424;13.458;2023-03-31T11:40:25;99167.25;;;11.48;100.00
41945;BME280;63122;52.424;13.458;2023-03-31T11:42:31;99163.81;;;11.48;100.00
41945;BME280;63122;52.424;13.458;2023-03-31T11:44:35;99163.63;;;11.49;100.00
41945;BME280;63122;52.424;13.458;2023-03-31T11:46:37;99157.31;;;11.50;100.00
41945;BME280;63122;52.424;13.458;2023-03-31T11:48:42;99153.06;;;11.49;100.00
41945;BME280;63122;52.424;13.458;2023-03-31T11:50:43;99154.69;;;11.50;100.00
41945;BME280;63122;52.424;13.458;2023-03-31T11:52:49;99149.84;;;11.54;100.00
41945;BME280;63122;52.424;13.458;2023-03-31T11:54:54;99150.00;;;11.52;100.00
41945;BME280;63122;52.424;13.458;2023-03-31T11:56:55;99148.00;;;11.55;100.00
41945;BME280;63122;52.424;13.458;2023-03-31T11:58:56;99142.31;;;11.58;100.00
41945;BME280;63122;52.424;13.458;2023-03-31T12:00:57;99139.31;;;11.61;100.00
41945;BME280;63122;52.424;13.458;2023-03-31T12:03:01;99135.03;;;11.60;100.00
41945;BME280;63122;52.424;13.458;2023-03-31T12:05:06;99127.91;;;11.60;100.00
41945;BME280;63122;52.424;13.458;2023-03-31T12:07:14;99140.31;;;11.60;100.00
41945;BME280;63122;52.424;13.458;2023-03-31T12:09:16;99123.03;;;11.57;100.00
41945;BME280;63122;52.424;13.458;2023-03-31T12:11:20;99113.09;;;11.59;100.00
41945;BME280;63122;52.424;13.458;2023-03-31T12:13:35;99120.22;;;11.59;100.00
41945;BME280;63122;52.424;13.458;2023-03-31T12:15:38;99109.66;;;11.65;100.00
41945;BME280;63122;52.424;13.458;2023-03-31T12:17:35;99113.91;;;11.66;100.00
41945;BME280;63122;52.424;13.458;2023-03-31T12:19:46;99104.38;;;11.65;100.00
41945;BME280;63122;52.424;13.458;2023-03-31T12:21:49;99110.69;;;11.71;100.00
41945;BME280;63122;52.424;13.458;2023-03-31T12:23:46;99100.75;;;11.73;100.00
41945;BME280;63122;52.424;13.458;2023-03-31T12:25:47;99095.50;;;11.80;100.00
41945;BME280;63122;52.424;13.458;2023-03-31T12:27:45;99107.69;;;11.81;100.00
41945;BME280;63122;52.424;13.458;2023-03-31T12:29:45;99123.47;;;11.67;100.00
41945;BME280;63122;52.424;13.458;2023-03-31T12:31:46;99116.25;;;11.41;100.00
41945;BME280;63122;52.424;13.458;2023-03-31T12:33:54;99102.72;;;11.22;100.00
41945;BME280;63122;52.424;13.458;2023-03-31T12:36:03;99103.69;;;11.08;100.00
41945;BME280;63122;52.424;13.458;2023-03-31T12:38:19;99105.34;;;10.87;100.00
41945;BME280;63122;52.424;13.458;2023-03-31T12:40:26;99098.97;;;10.75;100.00
41945;BME280;63122;52.424;13.458;2023-03-31T12:42:41;99094.50;;;10.75;100.00
41945;BME280;63122;52.424;13.458;2023-03-31T12:45:38;99111.28;;;10.68;100.00
41945;BME280;63122;52.424;13.458;2023-03-31T12:52:54;99091.81;;;10.69;100.00
41945;BME280;63122;52.424;13.458;2023-03-31T13:05:56;99092.03;;;10.67;100.00
41945;BME280;63122;52.424;13.458;2023-03-31T13:15:38;99084.53;;;10.71;100.00
41945;BME280;63122;52.424;13.458;2023-03-31T13:18:50;99084.34;;;10.72;100.00
41945;BME280;63122;52.424;13.458;2023-03-31T13:22:26;99083.50;;;10.43;100.00
41945;BME280;63122;52.424;13.458;2023-03-31T13:35:40;99097.38;;;9.93;100.00
41945;BME280;63122;52.424;13.458;2023-03-31T13:38:25;99108.34;;;9.97;100.00
41945;BME280;63122;52.424;13.458;2023-03-31T13:45:49;99084.75;;;9.89;100.00
41945;BME280;63122;52.424;13.458;2023-03-31T13:55:11;99089.97;;;9.82;100.00
41945;BME280;63122;52.424;13.458;2023-03-31T14:11:15;99072.91;;;9.63;100.00
41945;BME280;63122;52.424;13.458;2023-03-31T14:14:02;99075.09;;;9.59;100.00
41945;BME280;63122;52.424;13.458;2023-03-31T14:16:08;99083.00;;;9.59;100.00
41945;BME280;63122;52.424;13.458;2023-03-31T14:22:21;99077.53;;;9.61;100.00
41945;BME280;63122;52.424;13.458;2023-03-31T14:24:50;99076.28;;;9.57;100.00
41945;BME280;63122;52.424;13.458;2023-03-31T14:44:53;99074.41;;;9.35;100.00
41945;BME280;63122;52.424;13.458;2023-03-31T14:49:38;99064.69;;;9.36;100.00
41945;BME280;63122;52.424;13.458;2023-03-31T14:54:14;99054.09;;;9.29;100.00
41945;BME280;63122;52.424;13.458;2023-03-31T15:01:23;99046.63;;;9.33;100.00
41945;BME280;63122;52.424;13.458;2023-03-31T15:11:35;99042.53;;;9.45;100.00
41945;BME280;63122;52.424;13.458;2023-03-31T15:14:17;99042.63;;;9.52;100.00
41945;BME280;63122;52.424;13.458;2023-03-31T15:16:52;99039.81;;;9.39;100.00
41945;BME280;63122;52.424;13.458;2023-03-31T15:19:22;99040.44;;;9.41;100.00
41945;BME280;63122;52.424;13.458;2023-03-31T15:21:36;99041.91;;;9.43;100.00
41945;BME280;63122;52.424;13.458;2023-03-31T15:24:17;99042.53;;;9.45;100.00
41945;BME280;63122;52.424;13.458;2023-03-31T15:26:55;99041.06;;;9.43;100.00
41945;BME280;63122;52.424;13.458;2023-03-31T15:29:17;99038.91;;;9.46;100.00
41945;BME280;63122;52.424;13.458;2023-03-31T15:31:48;99045.44;;;9.50;100.00
41945;BME280;63122;52.424;13.458;2023-03-31T15:34:19;99047.69;;;9.54;100.00
41945;BME280;63122;52.424;13.458;2023-03-31T15:36:44;99038.00;;;9.54;100.00
41945;BME280;63122;52.424;13.458;2023-03-31T15:38:43;99047.88;;;9.52;100.00
41945;BME280;63122;52.424;13.458;2023-03-31T15:40:48;99041.63;;;9.53;100.00
41945;BME280;63122;52.424;13.458;2023-03-31T15:43:29;99048.53;;;9.54;100.00
41945;BME280;63122;52.424;13.458;2023-03-31T15:45:48;99038.38;;;9.51;100.00
41945;BME280;63122;52.424;13.458;2023-03-31T15:47:48;99032.28;;;9.50;100.00
41945;BME280;63122;52.424;13.458;2023-03-31T15:49:53;99035.44;;;9.46;100.00
41945;BME280;63122;52.424;13.458;2023-03-31T15:51:50;99025.91;;;9.45;100.00
41945;BME280;63122;52.424;13.458;2023-03-31T15:54:49;99031.19;;;9.45;100.00
41945;BME280;63122;52.424;13.458;2023-03-31T15:57:14;99018.94;;;9.52;100.00
41945;BME280;63122;52.424;13.458;2023-03-31T15:59:57;99017.34;;;9.58;100.00
41945;BME280;63122;52.424;13.458;2023-03-31T16:02:10;99023.09;;;9.61;100.00
41945;BME280;63122;52.424;13.458;2023-03-31T16:08:00;99023.88;;;9.62;100.00
41945;BME280;63122;52.424;13.458;2023-03-31T16:10:07;99019.06;;;9.65;100.00
41945;BME280;63122;52.424;13.458;2023-03-31T16:12:10;99022.88;;;9.63;100.00
41945;BME280;63122;52.424;13.458;2023-03-31T16:14:10;99022.06;;;9.62;100.00
41945;BME280;63122;52.424;13.458;2023-03-31T16:16:10;99024.25;;;9.59;100.00
41945;BME280;63122;52.424;13.458;2023-03-31T16:18:10;99020.81;;;9.58;100.00
41945;BME280;63122;52.424;13.458;2023-03-31T16:20:16;99020.38;;;9.55;100.00
41945;BME280;63122;52.424;13.458;2023-03-31T16:22:15;99021.47;;;9.45;100.00
41945;BME280;63122;52.424;13.458;2023-03-31T16:24:12;99020.28;;;9.48;100.00
41945;BME280;63122;52.424;13.458;2023-03-31T16:26:08;99020.09;;;9.49;100.00
41945;BME280;63122;52.424;13.458;2023-03-31T16:28:04;99019.09;;;9.50;100.00
41945;BME280;63122;52.424;13.458;2023-03-31T16:30:08;99012.22;;;9.49;100.00
41945;BME280;63122;52.424;13.458;2023-03-31T16:32:07;99018.31;;;9.50;100.00
41945;BME280;63122;52.424;13.458;2023-03-31T16:34:05;99023.19;;;9.53;100.00
41945;BME280;63122;52.424;13.458;2023-03-31T16:36:04;99021.56;;;9.52;100.00
41945;BME280;63122;52.424;13.458;2023-03-31T16:38:04;99023.81;;;9.55;100.00
41945;BME280;63122;52.424;13.458;2023-03-31T16:40:00;99022.56;;;9.51;100.00
41945;BME280;63122;52.424;13.458;2023-03-31T16:41:56;99023.56;;;9.50;100.00
41945;BME280;63122;52.424;13.458;2023-03-31T16:43:52;99020.56;;;9.53;100.00
41945;BME280;63122;52.424;13.458;2023-03-31T16:45:48;99022.81;;;9.56;100.00
41945;BME280;63122;52.424;13.458;2023-03-31T16:47:43;99025.19;;;9.51;100.00
41945;BME280;63122;52.424;13.458;2023-03-31T16:49:41;99022.91;;;9.48;100.00
41945;BME280;63122;52.424;13.458;2023-03-31T16:51:40;99023.75;;;9.48;100.00
41945;BME280;63122;52.424;13.458;2023-03-31T16:53:36;99025.84;;;9.53;100.00
41945;BME280;63122;52.424;13.458;2023-03-31T16:55:32;99033.53;;;9.55;100.00
41945;BME280;63122;52.424;13.458;2023-03-31T16:57:27;99032.72;;;9.54;100.00
41945;BME280;63122;52.424;13.458;2023-03-31T16:59:29;99027.47;;;9.54;100.00
41945;BME280;63122;52.424;13.458;2023-03-31T17:01:24;99025.84;;;9.53;100.00
41945;BME280;63122;52.424;13.458;2023-03-31T17:03:20;99033.41;;;9.63;100.00
41945;BME280;63122;52.424;13.458;2023-03-31T17:05:16;99025.34;;;9.64;100.00
41945;BME280;63122;52.424;13.458;2023-03-31T17:07:14;99033.63;;;9.61;100.00
41945;BME280;63122;52.424;13.458;2023-03-31T17:09:10;99042.06;;;9.57;100.00
41945;BME280;63122;52.424;13.458;2023-03-31T17:11:06;99042.44;;;9.54;100.00
41945;BME280;63122;52.424;13.458;2023-03-31T17:13:09;99041.44;;;9.55;100.00
41945;BME280;63122;52.424;13.458;2023-03-31T17:15:06;99039.16;;;9.51;100.00
41945;BME280;63122;52.424;13.458;2023-03-31T17:17:10;99046.44;;;9.49;100.00
41945;BME280;63122;52.424;13.458;2023-03-31T17:19:09;99039.38;;;9.50;100.00
41945;BME280;63122;52.424;13.458;2023-03-31T17:21:11;99036.72;;;9.50;100.00
41945;BME280;63122;52.424;13.458;2023-03-31T17:23:15;99048.69;;;9.53;100.00
41945;BME280;63122;52.424;13.458;2023-03-31T17:25:13;99033.53;;;9.55;100.00
41945;BME280;63122;52.424;13.458;2023-03-31T17:27:14;99042.97;;;9.49;100.00
41945;BME280;63122;52.424;13.458;2023-03-31T17:29:35;99039.00;;;9.53;100.00
41945;BME280;63122;52.424;13.458;2023-03-31T17:31:39;99042.63;;;9.52;100.00
41945;BME280;63122;52.424;13.458;2023-03-31T17:33:54;99036.53;;;9.51;100.00
41945;BME280;63122;52.424;13.458;2023-03-31T17:36:32;99031.91;;;9.54;100.00